首页
METAR-TAF:

METAR-TAF

机场 :

Lancaster Airport

兰开斯特, 宾夕法尼亚州, 美国

纬度: 40-07-13N, 经度: 076-17-40W, 海拔: 123米

当前天气观测

该预报发布于2小时和11分钟前的00:53 UTC
静风
温度 -2°C
湿度 43%
气压 1030 hPa
能見度: 16.1公里
天空无云

METAR: KLNS 220053Z 00000KT 10SM CLR M02/M13 A3042 RMK AO2 SLP307 T10221133

时间: 22:04 (03:04 UTC)

预报

该预报发布于3小时和41分钟前的23:23 UTC
预报有效从22日的 00点(UTC)到 22日的 24点(UTC)
风速5节,风向西
能見度: 10公里
天空无云

TAF: KLNS 212323Z 2200/2224 27005KT P6SM SKC

超过4000个机场的气象观测和天气预报(METAR&TAF报告)。

可查询的气象台以黄色和红色小点在地图上表示。

将鼠标移到小点上方,可查看气象台名称。

然后点击查看天气观测和预报。

如需切换地图:点击带黑十字的绿色按钮放大地图;点击带横线的绿色按钮缩小地图;或者点击绿色箭头查看邻近地区的地图。


METAR-TAF: